sensor_id;sensor_type;location;lat;lon;timestamp;P1;durP1;ratioP1;P2;durP2;ratioP2
44434;SDS011;30138;20.964;105.830;2023-03-01T00:04:33;161.73;;;98.95;;
44434;SDS011;30138;20.964;105.830;2023-03-01T00:09:40;165.75;;;98.15;;
44434;SDS011;30138;20.964;105.830;2023-03-01T00:14:50;161.73;;;97.20;;
44434;SDS011;30138;20.964;105.830;2023-03-01T00:19:57;159.07;;;95.20;;
44434;SDS011;30138;20.964;105.830;2023-03-01T00:25:07;152.20;;;91.20;;
44434;SDS011;30138;20.964;105.830;2023-03-01T00:30:19;158.50;;;88.30;;
44434;SDS011;30138;20.964;105.830;2023-03-01T00:35:27;168.90;;;89.68;;
44434;SDS011;30138;20.964;105.830;2023-03-01T00:40:36;164.15;;;89.78;;
44434;SDS011;30138;20.964;105.830;2023-03-01T00:45:46;166.75;;;90.03;;
44434;SDS011;30138;20.964;105.830;2023-03-01T00:50:54;168.55;;;87.63;;
44434;SDS011;30138;20.964;105.830;2023-03-01T00:56:02;156.23;;;84.60;;
44434;SDS011;30138;20.964;105.830;2023-03-01T01:01:14;159.07;;;81.38;;
44434;SDS011;30138;20.964;105.830;2023-03-01T01:06:27;160.98;;;83.45;;
44434;SDS011;30138;20.964;105.830;2023-03-01T01:11:37;156.27;;;82.67;;
44434;SDS011;30138;20.964;105.830;2023-03-01T01:16:46;155.77;;;81.43;;
44434;SDS011;30138;20.964;105.830;2023-03-01T01:21:55;162.73;;;82.80;;
44434;SDS011;30138;20.964;105.830;2023-03-01T01:27:03;151.40;;;81.25;;
44434;SDS011;30138;20.964;105.830;2023-03-01T01:32:14;150.70;;;80.32;;
44434;SDS011;30138;20.964;105.830;2023-03-01T01:37:21;156.17;;;82.50;;
44434;SDS011;30138;20.964;105.830;2023-03-01T01:42:32;169.20;;;86.07;;
44434;SDS011;30138;20.964;105.830;2023-03-01T01:47:42;190.57;;;93.97;;
44434;SDS011;30138;20.964;105.830;2023-03-01T01:52:51;200.25;;;97.95;;
44434;SDS011;30138;20.964;105.830;2023-03-01T01:58:01;197.85;;;96.70;;
44434;SDS011;30138;20.964;105.830;2023-03-01T02:03:15;195.15;;;102.25;;
44434;SDS011;30138;20.964;105.830;2023-03-01T02:08:31;195.25;;;101.78;;
44434;SDS011;30138;20.964;105.830;2023-03-01T02:13:44;192.57;;;103.18;;
44434;SDS011;30138;20.964;105.830;2023-03-01T02:18:54;184.73;;;99.68;;
44434;SDS011;30138;20.964;105.830;2023-03-01T02:24:04;209.85;;;103.60;;
44434;SDS011;30138;20.964;105.830;2023-03-01T02:29:24;201.40;;;101.68;;
44434;SDS011;30138;20.964;105.830;2023-03-01T02:34:33;218.82;;;105.43;;
44434;SDS011;30138;20.964;105.830;2023-03-01T02:39:41;223.38;;;107.50;;
44434;SDS011;30138;20.964;105.830;2023-03-01T02:44:54;236.13;;;112.32;;
44434;SDS011;30138;20.964;105.830;2023-03-01T02:50:03;232.95;;;110.13;;
44434;SDS011;30138;20.964;105.830;2023-03-01T02:55:34;220.18;;;108.40;;
44434;SDS011;30138;20.964;105.830;2023-03-01T03:00:44;223.80;;;104.63;;
44434;SDS011;30138;20.964;105.830;2023-03-01T03:05:52;210.10;;;102.78;;
44434;SDS011;30138;20.964;105.830;2023-03-01T03:11:00;213.30;;;105.18;;
44434;SDS011;30138;20.964;105.830;2023-03-01T03:16:11;217.73;;;106.50;;
44434;SDS011;30138;20.964;105.830;2023-03-01T03:21:22;213.93;;;106.72;;
44434;SDS011;30138;20.964;105.830;2023-03-01T03:26:29;224.88;;;109.93;;
44434;SDS011;30138;20.964;105.830;2023-03-01T03:31:39;218.70;;;111.20;;
44434;SDS011;30138;20.964;105.830;2023-03-01T03:36:48;231.00;;;111.30;;
44434;SDS011;30138;20.964;105.830;2023-03-01T03:42:01;228.98;;;114.00;;
44434;SDS011;30138;20.964;105.830;2023-03-01T03:47:10;236.25;;;112.05;;
44434;SDS011;30138;20.964;105.830;2023-03-01T03:52:22;231.48;;;114.45;;
44434;SDS011;30138;20.964;105.830;2023-03-01T03:57:37;239.40;;;117.15;;
44434;SDS011;30138;20.964;105.830;2023-03-01T04:03:04;240.57;;;116.63;;
44434;SDS011;30138;20.964;105.830;2023-03-01T04:08:16;253.50;;;117.18;;
44434;SDS011;30138;20.964;105.830;2023-03-01T04:13:24;240.82;;;117.53;;
44434;SDS011;30138;20.964;105.830;2023-03-01T04:18:34;234.90;;;115.75;;
44434;SDS011;30138;20.964;105.830;2023-03-01T04:23:51;234.05;;;118.45;;
44434;SDS011;30138;20.964;105.830;2023-03-01T04:29:00;235.95;;;114.53;;
44434;SDS011;30138;20.964;105.830;2023-03-01T04:34:19;228.10;;;115.60;;
44434;SDS011;30138;20.964;105.830;2023-03-01T04:39:28;232.10;;;116.50;;
44434;SDS011;30138;20.964;105.830;2023-03-01T04:44:47;243.35;;;120.53;;
44434;SDS011;30138;20.964;105.830;2023-03-01T04:50:00;239.85;;;114.30;;
44434;SDS011;30138;20.964;105.830;2023-03-01T04:55:09;233.85;;;113.97;;
44434;SDS011;30138;20.964;105.830;2023-03-01T05:00:17;226.30;;;107.95;;
44434;SDS011;30138;20.964;105.830;2023-03-01T05:05:32;226.15;;;110.50;;
44434;SDS011;30138;20.964;105.830;2023-03-01T05:10:41;225.00;;;108.50;;
44434;SDS011;30138;20.964;105.830;2023-03-01T05:15:54;217.88;;;111.35;;
44434;SDS011;30138;20.964;105.830;2023-03-01T05:21:05;227.02;;;108.32;;
44434;SDS011;30138;20.964;105.830;2023-03-01T05:26:18;216.57;;;109.45;;
44434;SDS011;30138;20.964;105.830;2023-03-01T05:31:30;214.43;;;108.43;;
44434;SDS011;30138;20.964;105.830;2023-03-01T05:36:42;210.25;;;108.97;;
44434;SDS011;30138;20.964;105.830;2023-03-01T05:41:52;222.27;;;113.00;;
44434;SDS011;30138;20.964;105.830;2023-03-01T05:47:01;244.93;;;112.20;;
44434;SDS011;30138;20.964;105.830;2023-03-01T05:52:11;273.08;;;122.78;;
44434;SDS011;30138;20.964;105.830;2023-03-01T05:57:19;309.25;;;132.07;;
44434;SDS011;30138;20.964;105.830;2023-03-01T06:02:29;287.15;;;129.77;;
44434;SDS011;30138;20.964;105.830;2023-03-01T06:07:41;308.08;;;131.23;;
44434;SDS011;30138;20.964;105.830;2023-03-01T06:12:50;291.30;;;127.33;;
44434;SDS011;30138;20.964;105.830;2023-03-01T06:17:58;257.00;;;119.10;;
44434;SDS011;30138;20.964;105.830;2023-03-01T06:23:11;254.50;;;118.15;;
44434;SDS011;30138;20.964;105.830;2023-03-01T06:28:27;250.90;;;117.75;;
44434;SDS011;30138;20.964;105.830;2023-03-01T06:33:34;241.13;;;112.97;;
44434;SDS011;30138;20.964;105.830;2023-03-01T06:38:44;232.38;;;112.88;;
44434;SDS011;30138;20.964;105.830;2023-03-01T06:43:52;229.23;;;110.55;;
44434;SDS011;30138;20.964;105.830;2023-03-01T06:49:01;225.75;;;113.20;;
44434;SDS011;30138;20.964;105.830;2023-03-01T06:54:13;223.57;;;111.00;;
44434;SDS011;30138;20.964;105.830;2023-03-01T06:59:24;239.77;;;110.78;;
44434;SDS011;30138;20.964;105.830;2023-03-01T07:04:31;231.65;;;112.80;;
44434;SDS011;30138;20.964;105.830;2023-03-01T07:09:41;217.18;;;108.88;;
44434;SDS011;30138;20.964;105.830;2023-03-01T07:14:48;226.93;;;111.93;;
44434;SDS011;30138;20.964;105.830;2023-03-01T07:19:57;228.73;;;113.93;;
44434;SDS011;30138;20.964;105.830;2023-03-01T07:25:08;231.77;;;114.15;;
44434;SDS011;30138;20.964;105.830;2023-03-01T07:30:16;215.77;;;112.05;;
44434;SDS011;30138;20.964;105.830;2023-03-01T07:35:25;218.45;;;111.10;;
44434;SDS011;30138;20.964;105.830;2023-03-01T07:40:37;212.67;;;111.67;;
44434;SDS011;30138;20.964;105.830;2023-03-01T07:45:45;222.88;;;112.05;;
44434;SDS011;30138;20.964;105.830;2023-03-01T07:50:53;225.10;;;112.57;;
44434;SDS011;30138;20.964;105.830;2023-03-01T07:56:06;208.98;;;110.95;;
44434;SDS011;30138;20.964;105.830;2023-03-01T08:06:23;208.65;;;112.53;;
44434;SDS011;30138;20.964;105.830;2023-03-01T08:11:33;218.23;;;114.60;;
44434;SDS011;30138;20.964;105.830;2023-03-01T08:16:42;210.98;;;115.05;;
44434;SDS011;30138;20.964;105.830;2023-03-01T08:21:51;204.20;;;113.90;;
44434;SDS011;30138;20.964;105.830;2023-03-01T08:27:03;211.77;;;116.15;;
44434;SDS011;30138;20.964;105.830;2023-03-01T08:32:12;204.73;;;111.57;;
44434;SDS011;30138;20.964;105.830;2023-03-01T08:37:19;186.52;;;105.57;;
44434;SDS011;30138;20.964;105.830;2023-03-01T08:42:29;190.82;;;106.70;;
44434;SDS011;30138;20.964;105.830;2023-03-01T08:47:38;193.77;;;104.27;;
44434;SDS011;30138;20.964;105.830;2023-03-01T08:52:46;179.90;;;100.35;;
44434;SDS011;30138;20.964;105.830;2023-03-01T08:57:56;182.32;;;102.88;;
44434;SDS011;30138;20.964;105.830;2023-03-01T09:03:06;171.80;;;97.18;;
44434;SDS011;30138;20.964;105.830;2023-03-01T09:08:14;166.10;;;91.78;;
44434;SDS011;30138;20.964;105.830;2023-03-01T09:13:23;178.90;;;98.15;;
44434;SDS011;30138;20.964;105.830;2023-03-01T09:18:33;171.52;;;96.80;;
44434;SDS011;30138;20.964;105.830;2023-03-01T09:23:42;170.55;;;95.25;;
44434;SDS011;30138;20.964;105.830;2023-03-01T09:28:54;161.00;;;94.13;;
44434;SDS011;30138;20.964;105.830;2023-03-01T09:39:10;159.10;;;91.22;;
44434;SDS011;30138;20.964;105.830;2023-03-01T09:44:32;153.95;;;91.10;;
44434;SDS011;30138;20.964;105.830;2023-03-01T09:49:46;163.70;;;93.10;;
44434;SDS011;30138;20.964;105.830;2023-03-01T09:55:07;165.07;;;92.22;;
44434;SDS011;30138;20.964;105.830;2023-03-01T10:00:22;154.45;;;89.88;;
44434;SDS011;30138;20.964;105.830;2023-03-01T10:05:42;152.13;;;89.88;;
44434;SDS011;30138;20.964;105.830;2023-03-01T10:10:57;161.80;;;92.13;;
44434;SDS011;30138;20.964;105.830;2023-03-01T10:16:10;152.70;;;88.53;;
44434;SDS011;30138;20.964;105.830;2023-03-01T10:21:22;145.07;;;86.60;;
44434;SDS011;30138;20.964;105.830;2023-03-01T10:26:36;145.95;;;86.45;;
44434;SDS011;30138;20.964;105.830;2023-03-01T10:31:54;152.75;;;86.50;;
44434;SDS011;30138;20.964;105.830;2023-03-01T10:37:09;144.73;;;83.03;;
44434;SDS011;30138;20.964;105.830;2023-03-01T10:42:22;142.55;;;82.85;;
44434;SDS011;30138;20.964;105.830;2023-03-01T10:47:35;142.00;;;84.55;;
44434;SDS011;30138;20.964;105.830;2023-03-01T10:52:43;136.77;;;82.90;;
44434;SDS011;30138;20.964;105.830;2023-03-01T10:58:08;134.93;;;81.03;;
44434;SDS011;30138;20.964;105.830;2023-03-01T11:03:26;140.07;;;80.45;;
44434;SDS011;30138;20.964;105.830;2023-03-01T11:13:50;128.68;;;80.28;;
44434;SDS011;30138;20.964;105.830;2023-03-01T11:19:18;137.77;;;79.32;;
44434;SDS011;30138;20.964;105.830;2023-03-01T11:24:34;137.43;;;82.63;;
44434;SDS011;30138;20.964;105.830;2023-03-01T11:29:47;126.10;;;78.05;;
44434;SDS011;30138;20.964;105.830;2023-03-01T11:35:08;145.48;;;82.93;;
44434;SDS011;30138;20.964;105.830;2023-03-01T11:40:27;129.35;;;79.85;;
44434;SDS011;30138;20.964;105.830;2023-03-01T11:45:42;131.75;;;80.78;;
44434;SDS011;30138;20.964;105.830;2023-03-01T11:51:40;133.95;;;81.03;;
44434;SDS011;30138;20.964;105.830;2023-03-01T11:56:57;132.80;;;78.60;;
44434;SDS011;30138;20.964;105.830;2023-03-01T12:08:17;130.25;;;77.72;;
44434;SDS011;30138;20.964;105.830;2023-03-01T12:19:50;128.20;;;77.03;;
44434;SDS011;30138;20.964;105.830;2023-03-01T12:25:24;135.27;;;81.95;;
44434;SDS011;30138;20.964;105.830;2023-03-01T12:30:42;148.32;;;82.18;;
44434;SDS011;30138;20.964;105.830;2023-03-01T12:36:30;146.77;;;83.30;;
44434;SDS011;30138;20.964;105.830;2023-03-01T12:42:02;152.35;;;87.70;;
44434;SDS011;30138;20.964;105.830;2023-03-01T12:47:25;158.23;;;87.93;;
44434;SDS011;30138;20.964;105.830;2023-03-01T12:52:50;158.93;;;88.60;;
44434;SDS011;30138;20.964;105.830;2023-03-01T12:58:05;149.52;;;88.55;;
44434;SDS011;30138;20.964;105.830;2023-03-01T13:03:28;145.25;;;87.82;;
44434;SDS011;30138;20.964;105.830;2023-03-01T13:09:05;168.20;;;91.05;;
44434;SDS011;30138;20.964;105.830;2023-03-01T13:20:11;153.00;;;89.35;;
44434;SDS011;30138;20.964;105.830;2023-03-01T13:25:21;170.93;;;97.43;;
44434;SDS011;30138;20.964;105.830;2023-03-01T13:30:42;191.80;;;106.15;;
44434;SDS011;30138;20.964;105.830;2023-03-01T13:47:58;210.55;;;116.43;;
44434;SDS011;30138;20.964;105.830;2023-03-01T13:53:15;192.63;;;111.45;;
44434;SDS011;30138;20.964;105.830;2023-03-01T13:58:31;189.75;;;112.10;;
44434;SDS011;30138;20.964;105.830;2023-03-01T14:09:44;185.93;;;113.05;;
44434;SDS011;30138;20.964;105.830;2023-03-01T14:15:01;196.95;;;113.80;;
44434;SDS011;30138;20.964;105.830;2023-03-01T14:20:26;184.77;;;110.72;;
44434;SDS011;30138;20.964;105.830;2023-03-01T14:25:48;198.70;;;113.22;;
44434;SDS011;30138;20.964;105.830;2023-03-01T14:31:00;193.60;;;114.00;;
44434;SDS011;30138;20.964;105.830;2023-03-01T14:36:25;201.10;;;115.63;;
44434;SDS011;30138;20.964;105.830;2023-03-01T14:41:38;185.18;;;114.15;;
44434;SDS011;30138;20.964;105.830;2023-03-01T14:46:54;188.52;;;114.47;;
44434;SDS011;30138;20.964;105.830;2023-03-01T14:52:07;193.43;;;114.53;;
44434;SDS011;30138;20.964;105.830;2023-03-01T14:57:42;186.85;;;113.95;;
44434;SDS011;30138;20.964;105.830;2023-03-01T15:02:52;194.30;;;114.65;;
44434;SDS011;30138;20.964;105.830;2023-03-01T15:08:08;188.88;;;112.60;;
44434;SDS011;30138;20.964;105.830;2023-03-01T15:13:25;181.07;;;113.05;;
44434;SDS011;30138;20.964;105.830;2023-03-01T15:18:37;189.05;;;114.05;;
44434;SDS011;30138;20.964;105.830;2023-03-01T15:23:52;187.15;;;115.03;;
44434;SDS011;30138;20.964;105.830;2023-03-01T15:29:03;190.23;;;115.85;;
44434;SDS011;30138;20.964;105.830;2023-03-01T15:34:23;184.00;;;114.75;;
44434;SDS011;30138;20.964;105.830;2023-03-01T15:39:43;187.55;;;114.90;;
44434;SDS011;30138;20.964;105.830;2023-03-01T15:45:08;187.97;;;114.10;;
44434;SDS011;30138;20.964;105.830;2023-03-01T15:50:29;193.07;;;112.35;;
44434;SDS011;30138;20.964;105.830;2023-03-01T15:55:43;185.82;;;113.78;;
44434;SDS011;30138;20.964;105.830;2023-03-01T16:00:52;186.70;;;113.07;;
44434;SDS011;30138;20.964;105.830;2023-03-01T16:06:01;184.25;;;115.45;;
44434;SDS011;30138;20.964;105.830;2023-03-01T16:11:13;181.18;;;113.45;;
44434;SDS011;30138;20.964;105.830;2023-03-01T16:16:23;187.35;;;114.60;;
44434;SDS011;30138;20.964;105.830;2023-03-01T16:21:31;189.38;;;116.50;;
44434;SDS011;30138;20.964;105.830;2023-03-01T16:26:41;182.32;;;116.78;;
44434;SDS011;30138;20.964;105.830;2023-03-01T16:31:49;187.60;;;113.82;;
44434;SDS011;30138;20.964;105.830;2023-03-01T16:36:56;179.50;;;113.85;;
44434;SDS011;30138;20.964;105.830;2023-03-01T16:42:06;188.98;;;116.60;;
44434;SDS011;30138;20.964;105.830;2023-03-01T16:47:15;186.68;;;116.43;;
44434;SDS011;30138;20.964;105.830;2023-03-01T16:52:23;189.85;;;116.90;;
44434;SDS011;30138;20.964;105.830;2023-03-01T16:57:33;184.48;;;115.43;;
44434;SDS011;30138;20.964;105.830;2023-03-01T17:02:42;192.55;;;118.90;;
44434;SDS011;30138;20.964;105.830;2023-03-01T17:07:50;185.85;;;115.75;;
44434;SDS011;30138;20.964;105.830;2023-03-01T17:13:01;191.15;;;119.50;;
44434;SDS011;30138;20.964;105.830;2023-03-01T17:18:10;205.10;;;122.70;;
44434;SDS011;30138;20.964;105.830;2023-03-01T17:23:17;194.25;;;120.63;;
44434;SDS011;30138;20.964;105.830;2023-03-01T17:28:27;196.90;;;121.35;;
44434;SDS011;30138;20.964;105.830;2023-03-01T17:33:36;195.27;;;119.95;;
44434;SDS011;30138;20.964;105.830;2023-03-01T17:38:44;190.68;;;121.03;;
44434;SDS011;30138;20.964;105.830;2023-03-01T17:43:55;198.57;;;123.60;;
44434;SDS011;30138;20.964;105.830;2023-03-01T17:49:04;194.75;;;122.40;;
44434;SDS011;30138;20.964;105.830;2023-03-01T17:54:14;208.35;;;124.50;;
44434;SDS011;30138;20.964;105.830;2023-03-01T17:59:24;200.27;;;124.40;;
44434;SDS011;30138;20.964;105.830;2023-03-01T18:04:34;202.90;;;125.43;;
44434;SDS011;30138;20.964;105.830;2023-03-01T18:09:42;215.95;;;129.88;;
44434;SDS011;30138;20.964;105.830;2023-03-01T18:14:52;220.50;;;129.98;;
44434;SDS011;30138;20.964;105.830;2023-03-01T18:20:01;219.27;;;131.80;;
44434;SDS011;30138;20.964;105.830;2023-03-01T18:25:10;217.30;;;130.73;;
44434;SDS011;30138;20.964;105.830;2023-03-01T18:30:22;221.20;;;131.82;;
44434;SDS011;30138;20.964;105.830;2023-03-01T18:40:41;222.60;;;132.23;;
44434;SDS011;30138;20.964;105.830;2023-03-01T18:45:56;216.82;;;129.50;;
44434;SDS011;30138;20.964;105.830;2023-03-01T18:51:09;219.77;;;132.00;;
44434;SDS011;30138;20.964;105.830;2023-03-01T18:56:20;226.43;;;132.80;;
44434;SDS011;30138;20.964;105.830;2023-03-01T19:01:30;229.70;;;135.20;;
44434;SDS011;30138;20.964;105.830;2023-03-01T19:06:39;240.83;;;137.03;;
44434;SDS011;30138;20.964;105.830;2023-03-01T19:11:48;228.63;;;135.25;;
44434;SDS011;30138;20.964;105.830;2023-03-01T19:17:01;235.32;;;136.45;;
44434;SDS011;30138;20.964;105.830;2023-03-01T19:22:10;235.45;;;137.23;;
44434;SDS011;30138;20.964;105.830;2023-03-01T19:27:19;239.70;;;135.90;;
44434;SDS011;30138;20.964;105.830;2023-03-01T19:32:29;244.95;;;139.00;;
44434;SDS011;30138;20.964;105.830;2023-03-01T19:37:53;233.90;;;138.25;;
44434;SDS011;30138;20.964;105.830;2023-03-01T19:43:01;238.20;;;139.95;;
44434;SDS011;30138;20.964;105.830;2023-03-01T19:48:10;231.63;;;134.07;;
44434;SDS011;30138;20.964;105.830;2023-03-01T19:53:19;242.18;;;137.52;;
44434;SDS011;30138;20.964;105.830;2023-03-01T19:58:27;239.38;;;138.43;;
44434;SDS011;30138;20.964;105.830;2023-03-01T20:03:37;241.63;;;137.45;;
44434;SDS011;30138;20.964;105.830;2023-03-01T20:08:46;246.43;;;138.97;;
44434;SDS011;30138;20.964;105.830;2023-03-01T20:13:54;248.25;;;137.05;;
44434;SDS011;30138;20.964;105.830;2023-03-01T20:19:05;237.50;;;135.05;;
44434;SDS011;30138;20.964;105.830;2023-03-01T20:24:13;240.13;;;139.13;;
44434;SDS011;30138;20.964;105.830;2023-03-01T20:29:21;241.90;;;140.70;;
44434;SDS011;30138;20.964;105.830;2023-03-01T20:34:31;242.13;;;136.98;;
44434;SDS011;30138;20.964;105.830;2023-03-01T20:39:42;237.45;;;136.88;;
44434;SDS011;30138;20.964;105.830;2023-03-01T20:44:51;236.65;;;135.73;;
44434;SDS011;30138;20.964;105.830;2023-03-01T20:50:02;240.10;;;137.50;;
44434;SDS011;30138;20.964;105.830;2023-03-01T20:55:11;245.95;;;139.20;;
44434;SDS011;30138;20.964;105.830;2023-03-01T21:00:19;242.93;;;138.93;;
44434;SDS011;30138;20.964;105.830;2023-03-01T21:05:29;245.27;;;136.43;;
44434;SDS011;30138;20.964;105.830;2023-03-01T21:10:36;244.35;;;137.63;;
44434;SDS011;30138;20.964;105.830;2023-03-01T21:15:51;248.27;;;137.10;;
44434;SDS011;30138;20.964;105.830;2023-03-01T21:21:03;251.52;;;139.95;;
44434;SDS011;30138;20.964;105.830;2023-03-01T21:26:14;246.55;;;140.57;;
44434;SDS011;30138;20.964;105.830;2023-03-01T21:31:23;243.80;;;140.85;;
44434;SDS011;30138;20.964;105.830;2023-03-01T21:36:34;253.45;;;142.30;;
44434;SDS011;30138;20.964;105.830;2023-03-01T21:41:43;245.88;;;141.45;;
44434;SDS011;30138;20.964;105.830;2023-03-01T21:46:52;248.85;;;140.50;;
44434;SDS011;30138;20.964;105.830;2023-03-01T21:52:02;242.50;;;139.15;;
44434;SDS011;30138;20.964;105.830;2023-03-01T21:57:24;249.18;;;137.95;;
44434;SDS011;30138;20.964;105.830;2023-03-01T22:02:33;248.27;;;140.98;;
44434;SDS011;30138;20.964;105.830;2023-03-01T22:07:42;250.18;;;140.23;;
44434;SDS011;30138;20.964;105.830;2023-03-01T22:12:51;241.10;;;138.13;;
44434;SDS011;30138;20.964;105.830;2023-03-01T22:17:59;250.75;;;142.52;;
44434;SDS011;30138;20.964;105.830;2023-03-01T22:23:09;259.70;;;142.88;;
44434;SDS011;30138;20.964;105.830;2023-03-01T22:28:16;254.77;;;140.57;;
44434;SDS011;30138;20.964;105.830;2023-03-01T22:33:24;257.92;;;142.38;;
44434;SDS011;30138;20.964;105.830;2023-03-01T22:38:34;255.32;;;142.20;;
44434;SDS011;30138;20.964;105.830;2023-03-01T22:43:42;254.35;;;140.23;;
44434;SDS011;30138;20.964;105.830;2023-03-01T22:48:50;262.00;;;141.90;;
44434;SDS011;30138;20.964;105.830;2023-03-01T22:54:03;251.60;;;141.10;;
44434;SDS011;30138;20.964;105.830;2023-03-01T22:59:14;266.27;;;145.18;;
44434;SDS011;30138;20.964;105.830;2023-03-01T23:04:24;269.52;;;147.40;;
44434;SDS011;30138;20.964;105.830;2023-03-01T23:09:34;271.50;;;147.25;;
44434;SDS011;30138;20.964;105.830;2023-03-01T23:14:43;274.77;;;147.73;;
44434;SDS011;30138;20.964;105.830;2023-03-01T23:19:51;276.98;;;149.70;;
44434;SDS011;30138;20.964;105.830;2023-03-01T23:25:01;275.95;;;149.10;;
44434;SDS011;30138;20.964;105.830;2023-03-01T23:30:12;276.20;;;147.60;;
44434;SDS011;30138;20.964;105.830;2023-03-01T23:35:20;282.67;;;153.35;;
44434;SDS011;30138;20.964;105.830;2023-03-01T23:40:29;279.35;;;149.48;;
44434;SDS011;30138;20.964;105.830;2023-03-01T23:45:38;279.67;;;150.30;;
44434;SDS011;30138;20.964;105.830;2023-03-01T23:50:46;277.95;;;150.30;;
44434;SDS011;30138;20.964;105.830;2023-03-01T23:55:58;274.50;;;151.80;;
